This is the latest recevied weather packets stored in our database for station/object S55YIZ-7. If no packets are shown the sender has not sent any weather packets the latest 10 day(s).
| Time | Temp. | Humidity | Pressure | Rain* | Wind** | Luminosity | Snow |
|---|---|---|---|---|---|---|---|
| 1777508662 | 11.67° C | 53% | 1022 hPa | - | - | - | - |
| 1777507761 | 12.22° C | 47% | 1021.8 hPa | - | - | - | - |
| 1777506912 | 12.78° C | 43% | 1021.7 hPa | - | - | - | - |
| 1777506861 | 12.78° C | 43% | 1021.7 hPa | - | - | - | - |
| 1777505992 | 12.78° C | 42% | 1021.7 hPa | - | - | - | - |
| 1777505961 | 12.78° C | 42% | 1021.7 hPa | - | - | - | - |
| 1777505060 | 12.78° C | 42% | 1021.7 hPa | - | - | - | - |
| 1777504160 | 13.33° C | 41% | 1021.3 hPa | - | - | - | - |
| 1777503260 | 13.33° C | 41% | 1021 hPa | - | - | - | - |
| 1777502359 | 13.89° C | 42% | 1020.6 hPa | - | - | - | - |
| 1777501459 | 13.89° C | 42% | 1020.5 hPa | - | - | - | - |
| 1777500559 | 13.33° C | 45% | 1020.1 hPa | - | - | - | - |
| 1777499659 | 13.33° C | 49% | 1019.9 hPa | - | - | - | - |
| 1777498759 | 13.33° C | 58% | 1019.7 hPa | - | - | - | - |
| 1777497859 | 12.78° C | 68% | 1019.6 hPa | - | - | - | - |
| 1777496958 | 12.78° C | 73% | 1019.9 hPa | - | - | - | - |
| 1777496106 | 12.78° C | 74% | 1020 hPa | - | - | - | - |
| 1777496058 | 12.78° C | 74% | 1020 hPa | - | - | - | - |
| 1777495818 | 12.78° C | 85% | 1020.2 hPa | - | - | - | - |
| 1777495577 | 12.78° C | 85% | 1020.2 hPa | - | - | - | - |
| 1777495196 | 12.78° C | 85% | 1020.2 hPa | - | - | - | - |
| 1777495158 | 12.78° C | 85% | 1020.2 hPa | - | - | - | - |
| 1777494258 | 12.78° C | 93% | 1019.9 hPa | - | - | - | - |
| 1777493358 | 12.78° C | 97% | 1019.5 hPa | - | - | - | - |
| 1777492458 | 12.78° C | 100% | 1019.7 hPa | - | - | - | - |
* Rain since midnight (hover to see other rain measurements)
** Current wind speed in m/s (hover to see current wind gust speed)